Ralph, Michigan
Current Conditions -  °F | °C
As of 9:50 AM on Thursday 23 Oct 2014 (Local Time) from KSAW Reporting Station
Clear Clear  
Wind Chill: 33°   Ceiling: Unl
Heat Index: 41°   Visibility: 7mi
Dew Point: 37°   Wind: 14mph
Humidity: 87%   Direction: 190°S
Pressure: 30.1"   Gusts: 20mph
Location:  46.11°N, 87.78°W
Report Text: KSAW 231450Z 19012G17KT 7SM SKC 05/03 A3010
Loading
Personal Weather Stations






























Interactive Weather Map
Tropical Storm Tracking
New forecast layout! Learn more

10-Day Weather Forecast

Advertisements
Track Severe Weather on mobile